Terminal Aerodrome Forecast
Issued by NWS

Current Version | Previous Version | Graphics & Text | Print | Product List | Glossary On
Versions: 1 2 3 4 5 6 7 8 9 10 11 12 13 14 15 16 17 18 19 20 21 22 23 24
000
FTUS41 KPBZ 290500
TAFHLG
TAF
KHLG 290530Z 2906/3006 VRB03KT P6SM BKN250
     FM291200 14006KT P6SM BKN080
     FM291600 19012G18KT 3SM -SHRASN OVC020
     FM291900 20012G20KT 2SM -SHRA BR OVC008
     FM300200 25013G23KT 2SM -SHSN OVC008=

USA.gov is the U.S. government's official web portal to all federal, state and local government web resources and services.